TAF KNEW
KNEW 280527Z 2806/2906 VRB04KT P6SM -SHRA SCT040 OVC100 FM281200 34008KT 5SM BR VCSH OVC010 FM281800 33007KT P6SM OVC020 FM290300 35012KT P6SM BKN025=
METAR KNEW
WC KNEW
WS KNEW
WV KNEW